Aérodrome :
LOGIN :

S'inscrire | Disclaimer

   EN    FR    IT 

 










Légende :    VFR   VFR Marginal   IFR   IFR Intensif   IFR Très Intensif
Visi : 
Plafond : 
>= 8 km
>= 3000ft
5 à 8 km
1000 à 3000 ft
1500m à 5 km
500 à 1000 ft
800 à 1500m
200 à 500 ft
< 800m
< 200 ft
Symboles :   Orages  Brouillard  Fortes neiges  Fortes précipitations  Vent > 20 kt
SIGMETs :   Divers  Orages  Givrage  Turbulence  Onde Orograph.  Cendres Volcan.







- Altitude de l'aérodrome : 778 ft
- Code IATA : BRQ


LKTB - Brno-Turany

DERNIER METAR :
  • 200000Z 06009KT CAVOK 15/13 Q1003 NOSIG

METARs EXPIRÉS :
  • 192330Z 08006KT CAVOK 14/13 Q1003 NOSIG
  • 192300Z 07005KT CAVOK 14/12 Q1003 NOSIG
  • 192230Z 06006KT CAVOK 15/12 Q1003 NOSIG
  • 192200Z 05006KT CAVOK 15/12 Q1003 NOSIG
  • 192130Z 06006KT 9999 FEW047 14/12 Q1004 NOSIG

TAF TAF LKTB
Valide du 20 à 00h jusqu'au 21 à 06h UTC


192300Z 2000/2106 06006KT CAVOK
BECMG 2000/2002 9999 BKN020
TEMPO 2002/2010 2500 RA BR OVC007
TEMPO 2010/2018 17014G24KT 7000 SHRA SCT030CB
Pas de NOTAMs connus pour ce terrain.



MET'MAP, la Météo Aéronautique d'un coup d'oeil ! - Copyright ORBIFLY Décembre 2007 - Disclaimer

ORBIFLY MET'MAP TEAM :

Programmation & Développement : Alexandra Zaïnal
Conception & Développement : Baudouin d'Aumeries
Co-Programmation & Développement : Marc-Olivier Méhu
Soutien technique & logistique : Manuel Goepfert

Contact : metmap@orbifly.com




SOURCES & CREDITS :

   NOAA